createdAt,value
2023-03-30T00:00:18.719Z,100696.88
2023-03-30T00:02:49.765Z,100699.31
2023-03-30T00:05:20.453Z,100700.22
2023-03-30T00:07:48.948Z,100697.44
2023-03-30T00:10:22.492Z,100684.81
2023-03-30T00:12:52.994Z,100685.84
2023-03-30T00:15:26.858Z,100684.50
2023-03-30T00:17:55.809Z,100676.63
2023-03-30T00:20:24.352Z,100676.41
2023-03-30T00:22:52.493Z,100672.09
2023-03-30T00:25:20.644Z,100672.09
2023-03-30T00:27:48.593Z,100675.22
2023-03-30T00:30:20.077Z,100667.09
2023-03-30T00:32:48.464Z,100661.53
2023-03-30T00:35:16.514Z,100661.41
2023-03-30T00:37:48.142Z,100652.34
2023-03-30T00:40:18.182Z,100644.00
2023-03-30T00:42:47.441Z,100646.78
2023-03-30T00:45:25.753Z,100641.44
2023-03-30T00:47:58.521Z,100642.19
2023-03-30T00:50:35.134Z,100629.47
2023-03-30T00:53:10.340Z,100624.75
2023-03-30T00:55:41.334Z,100618.56
2023-03-30T00:58:11.043Z,100610.78
2023-03-30T01:00:45.146Z,100600.72
2023-03-30T01:03:20.224Z,100594.75
2023-03-30T01:05:49.046Z,100583.63
2023-03-30T01:08:18.394Z,100579.56
2023-03-30T01:10:46.470Z,100572.41
2023-03-30T01:13:16.286Z,100567.91
2023-03-30T01:15:58.867Z,100565.13
2023-03-30T01:18:35.813Z,100557.13
2023-03-30T01:21:36.188Z,100560.88
2023-03-30T01:24:34.896Z,100552.00
2023-03-30T01:27:13.052Z,100549.00
2023-03-30T01:29:55.937Z,100548.78
2023-03-30T01:32:46.336Z,100544.00
2023-03-30T01:35:35.300Z,100537.03
2023-03-30T01:38:41.765Z,100528.81
2023-03-30T01:41:20.105Z,100542.72
2023-03-30T01:43:57.530Z,100531.06
2023-03-30T01:46:31.625Z,100522.63
2023-03-30T01:49:09.370Z,100518.78
2023-03-30T01:51:42.924Z,100509.56
2023-03-30T01:54:15.627Z,100511.50
2023-03-30T01:56:51.032Z,100506.25
2023-03-30T01:59:25.435Z,100503.72
2023-03-30T02:02:00.598Z,100497.72
2023-03-30T02:04:32.114Z,100508.50
2023-03-30T02:07:04.462Z,100494.19
2023-03-30T02:09:35.930Z,100486.63
2023-03-30T02:12:07.846Z,100475.50
2023-03-30T02:14:38.586Z,100472.63
2023-03-30T02:17:11.506Z,100464.72
2023-03-30T02:19:39.653Z,100448.78
2023-03-30T02:22:08.891Z,100444.56
2023-03-30T02:24:38.114Z,100448.16
2023-03-30T02:27:08.040Z,100450.81
2023-03-30T02:29:38.640Z,100438.13
2023-03-30T02:32:07.936Z,100434.38
2023-03-30T02:34:53.268Z,100432.88
2023-03-30T02:37:45.146Z,100436.00
2023-03-30T02:40:32.229Z,100420.16
2023-03-30T02:43:16.602Z,100414.09
2023-03-30T02:45:53.615Z,100417.53
2023-03-30T02:48:34.857Z,100409.81
2023-03-30T02:51:22.828Z,100398.09
2023-03-30T02:53:58.545Z,100400.53
2023-03-30T02:56:37.620Z,100394.56
2023-03-30T02:59:13.263Z,100397.44
2023-03-30T03:01:45.401Z,100383.34
2023-03-30T03:04:16.432Z,100367.13
2023-03-30T03:06:45.024Z,100366.75
2023-03-30T03:09:15.386Z,100368.13
2023-03-30T03:11:43.399Z,100366.00
2023-03-30T03:14:13.124Z,100358.97
2023-03-30T03:16:41.118Z,100358.63
2023-03-30T03:19:09.805Z,100352.63
2023-03-30T03:21:38.005Z,100346.09
2023-03-30T03:24:06.890Z,100339.06
2023-03-30T03:26:35.071Z,100337.25
2023-03-30T03:29:03.591Z,100325.97
2023-03-30T03:31:33.107Z,100322.59
2023-03-30T03:34:01.420Z,100320.91
2023-03-30T03:36:30.893Z,100308.28
2023-03-30T03:38:58.846Z,100305.75
2023-03-30T03:41:27.004Z,100300.53
2023-03-30T03:43:54.920Z,100307.78
2023-03-30T03:46:23.130Z,100310.81
2023-03-30T03:48:52.682Z,100316.13
2023-03-30T03:51:23.074Z,100313.44
2023-03-30T03:53:51.694Z,100287.50
2023-03-30T03:56:19.762Z,100286.88
2023-03-30T03:58:47.716Z,100286.75
2023-03-30T04:01:15.785Z,100292.72
2023-03-30T04:03:43.960Z,100294.19
2023-03-30T04:06:13.333Z,100294.72
2023-03-30T04:08:43.058Z,100282.22
2023-03-30T04:11:13.681Z,100274.16
2023-03-30T04:13:43.374Z,100269.63
2023-03-30T04:16:11.652Z,100261.84
2023-03-30T04:18:41.773Z,100259.69
2023-03-30T04:21:13.146Z,100253.91
2023-03-30T04:23:45.851Z,100248.47
2023-03-30T04:26:15.624Z,100253.06
2023-03-30T04:28:43.566Z,100250.38
2023-03-30T04:31:13.157Z,100243.41
2023-03-30T04:33:51.947Z,100242.06
2023-03-30T04:36:21.287Z,100241.50
2023-03-30T04:38:58.852Z,100237.97
2023-03-30T04:41:33.619Z,100238.03
2023-03-30T04:44:03.487Z,100234.91
2023-03-30T04:46:31.783Z,100226.97
2023-03-30T04:48:59.745Z,100230.50
2023-03-30T04:51:28.222Z,100214.00
2023-03-30T04:53:57.809Z,100220.81
2023-03-30T04:56:26.287Z,100218.34
2023-03-30T04:58:54.402Z,100216.16
2023-03-30T05:01:22.648Z,100216.09
2023-03-30T05:03:51.298Z,100219.03
2023-03-30T05:06:19.570Z,100222.06
2023-03-30T05:08:47.594Z,100218.16
2023-03-30T05:11:17.196Z,100206.50
2023-03-30T05:13:45.244Z,100206.16
2023-03-30T05:16:13.446Z,100191.25
2023-03-30T05:18:41.852Z,100192.81
2023-03-30T05:21:09.822Z,100205.53
2023-03-30T05:23:39.993Z,100194.53
2023-03-30T05:26:09.051Z,100193.03
2023-03-30T05:28:38.464Z,100189.50
2023-03-30T05:31:07.480Z,100194.09
2023-03-30T05:33:36.807Z,100184.47
2023-03-30T05:36:06.317Z,100184.53
2023-03-30T05:38:34.975Z,100182.00
2023-03-30T05:41:05.133Z,100182.88
2023-03-30T05:43:33.797Z,100163.91
2023-03-30T05:46:05.560Z,100163.78
2023-03-30T05:48:33.609Z,100186.03
2023-03-30T05:51:02.634Z,100186.66
2023-03-30T05:53:31.115Z,100190.91
2023-03-30T05:55:59.302Z,100202.72
2023-03-30T05:58:27.591Z,100203.56
2023-03-30T06:00:59.400Z,100212.56
2023-03-30T06:03:28.776Z,100213.66
2023-03-30T06:05:56.941Z,100209.66
2023-03-30T06:08:27.154Z,100214.28
2023-03-30T06:10:56.206Z,100210.41
2023-03-30T06:13:25.354Z,100200.66
2023-03-30T06:15:53.445Z,100186.69
2023-03-30T06:18:21.521Z,100179.44
2023-03-30T06:20:51.839Z,100160.72
2023-03-30T06:23:20.102Z,100154.28
2023-03-30T06:25:53.070Z,100156.44
2023-03-30T06:28:21.919Z,100152.69
2023-03-30T06:30:50.585Z,100156.25
2023-03-30T06:33:19.462Z,100167.09
2023-03-30T06:35:48.879Z,100164.28
2023-03-30T06:38:21.338Z,100168.16
2023-03-30T06:40:51.392Z,100164.47
2023-03-30T06:43:21.818Z,100164.94
2023-03-30T06:45:54.091Z,100163.34
2023-03-30T06:48:23.966Z,100158.22
2023-03-30T06:50:52.624Z,100171.72
2023-03-30T06:53:24.417Z,100168.53
2023-03-30T06:55:56.975Z,100165.84
2023-03-30T06:58:26.389Z,100166.81
2023-03-30T07:00:54.905Z,100168.16
2023-03-30T07:03:23.088Z,100160.09
2023-03-30T07:05:52.664Z,100152.97
2023-03-30T07:08:22.365Z,100146.94
2023-03-30T07:10:51.596Z,100153.75
2023-03-30T07:13:19.743Z,100149.84
2023-03-30T07:15:48.411Z,100154.25
2023-03-30T07:18:22.434Z,100146.19
2023-03-30T07:20:51.293Z,100153.56
2023-03-30T07:23:22.229Z,100153.88
2023-03-30T07:25:50.289Z,100151.03
2023-03-30T07:28:18.617Z,100152.56
2023-03-30T07:30:47.221Z,100152.91
2023-03-30T07:33:15.717Z,100155.31
2023-03-30T07:35:47.328Z,100151.91
2023-03-30T07:38:15.723Z,100154.91
2023-03-30T07:40:45.325Z,100150.34
2023-03-30T07:43:14.418Z,100152.69
2023-03-30T07:45:42.589Z,100147.59
2023-03-30T07:48:10.720Z,100150.97
2023-03-30T07:50:38.888Z,100147.06
2023-03-30T07:53:07.225Z,100151.31
2023-03-30T07:55:35.283Z,100148.44
2023-03-30T07:58:05.198Z,100144.63
2023-03-30T08:00:33.205Z,100159.22
2023-03-30T08:03:01.920Z,100151.91
2023-03-30T08:05:29.979Z,100170.13
2023-03-30T08:07:57.995Z,100156.25
2023-03-30T08:10:25.989Z,100158.88
2023-03-30T08:12:54.092Z,100164.00
2023-03-30T08:15:23.525Z,100161.66
2023-03-30T08:17:51.879Z,100152.72
2023-03-30T08:20:20.196Z,100158.84
2023-03-30T08:22:49.285Z,100150.47
2023-03-30T08:25:18.914Z,100157.06
2023-03-30T08:27:47.491Z,100161.63
2023-03-30T08:30:18.025Z,100162.19
2023-03-30T08:32:48.522Z,100161.66
2023-03-30T08:35:17.807Z,100158.00
2023-03-30T08:37:46.319Z,100165.16
2023-03-30T08:40:17.918Z,100149.53
2023-03-30T08:43:19.992Z,100160.84
2023-03-30T08:45:48.998Z,100151.03
2023-03-30T08:48:23.736Z,100151.75
2023-03-30T08:50:57.544Z,100151.06
2023-03-30T08:53:26.447Z,100149.06
2023-03-30T08:56:02.527Z,100136.50
2023-03-30T08:58:40.363Z,100139.31
2023-03-30T09:01:20.299Z,100133.56
2023-03-30T09:04:03.674Z,100144.59
2023-03-30T09:06:45.007Z,100134.44
2023-03-30T09:09:15.206Z,100128.44
2023-03-30T09:11:43.875Z,100117.00
2023-03-30T09:14:19.934Z,100111.16
2023-03-30T09:16:53.913Z,100109.66
2023-03-30T09:19:28.082Z,100106.94
2023-03-30T09:21:58.093Z,100107.78
2023-03-30T09:24:27.381Z,100110.91
2023-03-30T09:27:00.919Z,100111.44
2023-03-30T09:29:32.655Z,100123.97
2023-03-30T09:32:06.967Z,100131.88
2023-03-30T09:34:41.937Z,100122.44
2023-03-30T09:37:13.702Z,100120.47
2023-03-30T09:39:42.349Z,100139.38
2023-03-30T09:42:20.246Z,100137.06
2023-03-30T09:44:51.332Z,100129.50
2023-03-30T09:47:26.576Z,100134.38
2023-03-30T09:50:05.039Z,100128.84
2023-03-30T09:52:37.512Z,100139.63
2023-03-30T09:55:28.416Z,100140.25
2023-03-30T09:58:13.210Z,100136.31
2023-03-30T10:00:41.775Z,100136.16
2023-03-30T10:03:21.015Z,100131.63
2023-03-30T10:06:03.281Z,100122.09
2023-03-30T10:08:32.601Z,100111.69
2023-03-30T10:11:05.661Z,100107.84
2023-03-30T10:13:36.861Z,100112.38
2023-03-30T10:16:10.396Z,100112.13
2023-03-30T10:18:41.889Z,100118.78
2023-03-30T10:21:23.030Z,100117.44
2023-03-30T10:24:01.496Z,100109.75
2023-03-30T10:26:31.802Z,100097.53
2023-03-30T10:29:06.228Z,100104.00
2023-03-30T10:31:37.336Z,100099.75
2023-03-30T10:34:08.427Z,100108.16
2023-03-30T10:36:41.011Z,100105.94
2023-03-30T10:39:15.362Z,100095.28
2023-03-30T10:41:43.872Z,100112.25
2023-03-30T10:44:25.628Z,100106.16
2023-03-30T10:47:04.199Z,100100.13
2023-03-30T10:49:44.474Z,100096.09
2023-03-30T10:52:25.461Z,100092.13
2023-03-30T10:54:58.637Z,100095.59
2023-03-30T10:57:38.719Z,100084.16
2023-03-30T11:00:26.098Z,100088.91
2023-03-30T11:03:02.011Z,100094.28
2023-03-30T11:05:34.090Z,100102.88
2023-03-30T11:08:05.894Z,100102.25
2023-03-30T11:10:38.463Z,100100.06
2023-03-30T11:13:08.477Z,100107.44
2023-03-30T11:15:42.837Z,100097.94
2023-03-30T11:18:22.797Z,100110.09
2023-03-30T11:20:57.998Z,100101.16
2023-03-30T11:23:36.055Z,100109.63
2023-03-30T11:26:08.758Z,100104.84
2023-03-30T11:28:54.209Z,100113.69
2023-03-30T11:31:40.884Z,100101.38
2023-03-30T11:34:20.751Z,100109.84
2023-03-30T11:36:57.255Z,100104.97
2023-03-30T11:39:32.869Z,100101.69
2023-03-30T11:42:09.540Z,100103.47
2023-03-30T11:44:37.717Z,100104.81
2023-03-30T11:47:28.983Z,100104.47
2023-03-30T11:50:26.069Z,100109.84
2023-03-30T11:53:08.562Z,100103.19
2023-03-30T11:55:53.285Z,100104.09
2023-03-30T11:58:31.160Z,100102.47
2023-03-30T12:01:23.292Z,100102.59
2023-03-30T12:03:54.619Z,100110.47
2023-03-30T12:06:31.131Z,100094.16
2023-03-30T12:09:14.185Z,100110.06
2023-03-30T12:11:48.877Z,100117.75
2023-03-30T12:14:41.897Z,100108.84
2023-03-30T12:17:25.537Z,100120.78
2023-03-30T12:19:59.925Z,100133.16
2023-03-30T12:22:36.202Z,100128.13
2023-03-30T12:25:16.451Z,100160.19
2023-03-30T12:27:59.817Z,100159.47
2023-03-30T12:30:31.591Z,100182.75
2023-03-30T12:33:03.343Z,100186.00
2023-03-30T12:35:53.807Z,100181.78
2023-03-30T12:38:25.705Z,100182.03
2023-03-30T12:41:14.852Z,100180.50
2023-03-30T12:44:14.965Z,100179.34
2023-03-30T12:46:58.455Z,100179.91
2023-03-30T12:49:39.204Z,100183.00
2023-03-30T12:52:14.365Z,100174.78
2023-03-30T12:55:08.799Z,100170.41
2023-03-30T12:57:53.185Z,100175.34
2023-03-30T13:00:37.269Z,100168.53
2023-03-30T13:03:21.596Z,100172.38
2023-03-30T13:05:53.780Z,100181.03
2023-03-30T13:08:28.157Z,100174.06
2023-03-30T13:11:09.061Z,100175.34
2023-03-30T13:13:56.077Z,100176.22
2023-03-30T13:17:01.467Z,100179.75
2023-03-30T13:19:44.059Z,100178.09
2023-03-30T13:22:36.018Z,100173.50
2023-03-30T13:25:28.483Z,100172.25
2023-03-30T13:28:00.414Z,100176.31
2023-03-30T13:30:30.689Z,100182.75
2023-03-30T13:33:12.746Z,100178.91
2023-03-30T13:35:54.261Z,100184.59
2023-03-30T13:38:46.327Z,100187.47
2023-03-30T13:41:28.534Z,100190.66
2023-03-30T13:44:14.217Z,100194.72
2023-03-30T13:46:51.415Z,100194.63
2023-03-30T13:49:41.068Z,100189.44
2023-03-30T13:52:15.779Z,100199.19
2023-03-30T13:54:44.930Z,100193.06
2023-03-30T13:57:15.860Z,100190.47
2023-03-30T13:59:47.491Z,100174.50
2023-03-30T14:02:17.604Z,100185.38
2023-03-30T14:04:45.827Z,100181.19
2023-03-30T14:07:18.419Z,100192.13
2023-03-30T14:10:04.718Z,100189.78
2023-03-30T14:12:39.704Z,100198.91
2023-03-30T14:15:18.682Z,100191.53
2023-03-30T14:17:52.893Z,100190.69
2023-03-30T14:20:37.240Z,100196.97
2023-03-30T14:23:07.266Z,100187.97
2023-03-30T14:25:39.784Z,100177.97
2023-03-30T14:28:15.350Z,100195.72
2023-03-30T14:30:51.582Z,100185.91
2023-03-30T14:33:19.727Z,100200.03
2023-03-30T14:35:50.849Z,100170.41
2023-03-30T14:38:24.055Z,100184.09
2023-03-30T14:40:53.433Z,100181.34
2023-03-30T14:43:24.814Z,100184.53
2023-03-30T14:45:53.881Z,100182.59
2023-03-30T14:48:26.822Z,100188.22
2023-03-30T14:50:55.241Z,100191.84
2023-03-30T14:53:28.387Z,100169.19
2023-03-30T14:55:58.420Z,100187.31
2023-03-30T14:58:28.701Z,100178.72
2023-03-30T15:00:59.043Z,100189.91
2023-03-30T15:03:34.058Z,100179.97
2023-03-30T15:06:03.592Z,100178.56
2023-03-30T15:08:39.594Z,100181.16
2023-03-30T15:11:10.723Z,100178.28
2023-03-30T15:13:43.718Z,100180.25
2023-03-30T15:16:16.980Z,100183.34
2023-03-30T15:18:45.571Z,100185.28
2023-03-30T15:21:15.581Z,100179.16
2023-03-30T15:23:47.673Z,100163.50
2023-03-30T15:26:16.041Z,100158.63
2023-03-30T15:28:48.366Z,100169.13
2023-03-30T15:31:17.334Z,100171.28
2023-03-30T15:33:46.828Z,100176.47
2023-03-30T15:36:20.176Z,100168.75
2023-03-30T15:38:52.273Z,100180.34
2023-03-30T15:41:23.813Z,100207.78
2023-03-30T15:44:00.505Z,100216.16
2023-03-30T15:46:29.141Z,100210.47
2023-03-30T15:48:59.510Z,100221.47
2023-03-30T15:51:33.256Z,100204.19
2023-03-30T15:54:04.344Z,100214.69
2023-03-30T15:56:37.935Z,100198.84
2023-03-30T15:59:06.940Z,100198.00
2023-03-30T16:01:44.206Z,100198.69
2023-03-30T16:04:15.265Z,100206.38
2023-03-30T16:06:44.583Z,100202.16
2023-03-30T16:09:16.085Z,100203.00
2023-03-30T16:11:46.995Z,100207.91
2023-03-30T16:14:20.292Z,100207.91
2023-03-30T16:16:51.441Z,100204.66
2023-03-30T16:19:21.122Z,100208.69
2023-03-30T16:21:49.101Z,100197.81
2023-03-30T16:24:18.869Z,100204.50
2023-03-30T16:26:47.595Z,100207.97
2023-03-30T16:29:21.607Z,100208.84
2023-03-30T16:31:49.737Z,100203.44
2023-03-30T16:34:18.148Z,100203.28
2023-03-30T16:36:48.062Z,100196.84
2023-03-30T16:39:20.445Z,100198.97
2023-03-30T16:41:49.545Z,100195.84
2023-03-30T16:44:18.086Z,100199.88
2023-03-30T16:46:46.793Z,100205.81
2023-03-30T16:49:16.639Z,100192.94
2023-03-30T16:51:44.874Z,100203.59
2023-03-30T16:54:27.273Z,100203.84
2023-03-30T16:57:00.618Z,100209.53
2023-03-30T16:59:33.098Z,100199.22
2023-03-30T17:02:02.498Z,100212.06
2023-03-30T17:04:30.534Z,100216.44
2023-03-30T17:06:58.926Z,100218.13
2023-03-30T17:09:27.419Z,100208.63
2023-03-30T17:11:55.452Z,100211.66
2023-03-30T17:14:25.012Z,100212.34
2023-03-30T17:16:53.043Z,100224.97
2023-03-30T17:19:21.052Z,100215.56
2023-03-30T17:21:49.139Z,100213.91
2023-03-30T17:24:17.250Z,100213.91
2023-03-30T17:26:45.509Z,100214.31
2023-03-30T17:29:13.610Z,100219.81
2023-03-30T17:31:45.925Z,100230.19
2023-03-30T17:34:15.799Z,100228.34
2023-03-30T17:36:44.209Z,100219.88
2023-03-30T17:39:15.394Z,100228.16
2023-03-30T17:41:43.878Z,100226.47
2023-03-30T17:44:11.795Z,100228.31
2023-03-30T17:46:42.791Z,100233.41
2023-03-30T17:49:17.895Z,100239.19
2023-03-30T17:51:46.272Z,100236.63
2023-03-30T17:54:17.451Z,100245.34
2023-03-30T17:56:45.720Z,100226.72
2023-03-30T17:59:14.152Z,100236.81
2023-03-30T18:01:42.397Z,100239.94
2023-03-30T18:04:10.689Z,100240.44
2023-03-30T18:06:40.710Z,100239.16
2023-03-30T18:09:16.135Z,100248.78
2023-03-30T18:11:44.090Z,100234.94
2023-03-30T18:14:12.685Z,100243.72
2023-03-30T18:16:43.801Z,100240.06
2023-03-30T18:19:13.620Z,100234.69
2023-03-30T18:21:43.581Z,100231.34
2023-03-30T18:24:11.742Z,100237.88
2023-03-30T18:26:41.529Z,100243.84
2023-03-30T18:29:20.316Z,100244.81
2023-03-30T18:31:48.702Z,100251.97
2023-03-30T18:34:17.183Z,100259.81
2023-03-30T18:36:46.901Z,100256.69
2023-03-30T18:39:19.728Z,100264.47
2023-03-30T18:41:50.340Z,100272.66
2023-03-30T18:44:18.569Z,100267.47
2023-03-30T18:46:51.335Z,100269.25
2023-03-30T18:49:24.386Z,100275.72
2023-03-30T18:51:53.931Z,100267.78
2023-03-30T18:54:21.958Z,100272.88
2023-03-30T18:56:50.125Z,100277.28
2023-03-30T18:59:23.029Z,100272.25
2023-03-30T19:01:51.146Z,100273.47
2023-03-30T19:04:19.498Z,100267.03
2023-03-30T19:06:48.306Z,100274.66
2023-03-30T19:09:17.877Z,100274.94
2023-03-30T19:11:45.949Z,100278.19
2023-03-30T19:14:16.766Z,100265.31
2023-03-30T19:16:45.006Z,100264.66
2023-03-30T19:19:15.509Z,100266.47
2023-03-30T19:21:46.216Z,100264.75
2023-03-30T19:24:14.545Z,100259.53
2023-03-30T19:26:43.895Z,100255.34
2023-03-30T19:29:13.066Z,100262.03
2023-03-30T19:31:41.037Z,100263.13
2023-03-30T19:34:09.369Z,100273.38
2023-03-30T19:36:37.390Z,100274.13
2023-03-30T19:39:05.517Z,100266.44
2023-03-30T19:41:36.634Z,100270.56
2023-03-30T19:44:06.464Z,100268.84
2023-03-30T19:46:39.803Z,100263.00
2023-03-30T19:49:08.887Z,100270.91
2023-03-30T19:51:37.076Z,100265.44
2023-03-30T19:54:05.191Z,100268.03
2023-03-30T19:56:37.505Z,100271.78
2023-03-30T19:59:09.111Z,100263.75
2023-03-30T20:01:37.751Z,100260.22
2023-03-30T20:04:06.617Z,100248.09
2023-03-30T20:06:35.975Z,100245.66
2023-03-30T20:09:05.529Z,100250.75
2023-03-30T20:11:37.112Z,100256.63
2023-03-30T20:14:07.599Z,100239.81
2023-03-30T20:16:35.770Z,100249.06
2023-03-30T20:19:12.996Z,100255.03
2023-03-30T20:21:47.171Z,100249.47
2023-03-30T20:24:15.299Z,100246.69
2023-03-30T20:26:43.275Z,100243.00
2023-03-30T20:29:15.555Z,100256.16
2023-03-30T20:31:44.589Z,100252.06
2023-03-30T20:34:14.563Z,100251.22
2023-03-30T20:36:43.118Z,100257.66
2023-03-30T20:39:14.147Z,100255.34
2023-03-30T20:41:42.655Z,100254.47
2023-03-30T20:44:12.559Z,100256.66
2023-03-30T20:46:45.906Z,100247.44
2023-03-30T20:49:14.421Z,100237.69
2023-03-30T20:51:45.152Z,100250.94
2023-03-30T20:54:14.774Z,100247.03
2023-03-30T20:56:43.182Z,100250.47
2023-03-30T20:59:11.861Z,100250.34
2023-03-30T21:01:41.576Z,100248.88
2023-03-30T21:04:09.519Z,100249.13
2023-03-30T21:06:37.686Z,100259.97
2023-03-30T21:09:08.771Z,100264.44
2023-03-30T21:11:39.886Z,100255.22
2023-03-30T21:14:09.401Z,100264.72
2023-03-30T21:16:38.044Z,100259.47
2023-03-30T21:19:07.478Z,100255.84
2023-03-30T21:21:37.458Z,100250.63
2023-03-30T21:24:06.361Z,100247.69
2023-03-30T21:26:34.446Z,100245.84
2023-03-30T21:29:02.741Z,100249.28
2023-03-30T21:31:30.855Z,100248.66
2023-03-30T21:33:58.943Z,100247.19
2023-03-30T21:36:28.674Z,100251.94
2023-03-30T21:38:58.919Z,100244.88
2023-03-30T21:41:28.901Z,100231.16
2023-03-30T21:43:57.359Z,100240.38
2023-03-30T21:46:26.984Z,100248.41
2023-03-30T21:48:55.924Z,100239.03
2023-03-30T21:51:26.386Z,100234.75
2023-03-30T21:53:58.160Z,100227.22
2023-03-30T21:56:28.990Z,100233.31
2023-03-30T21:58:57.500Z,100229.03
2023-03-30T22:01:26.344Z,100232.09
2023-03-30T22:03:55.003Z,100224.81
2023-03-30T22:06:23.791Z,100223.84
2023-03-30T22:08:51.924Z,100215.94
2023-03-30T22:11:23.391Z,100214.72
2023-03-30T22:13:52.372Z,100212.78
2023-03-30T22:16:22.484Z,100209.03
2023-03-30T22:18:51.733Z,100204.16
2023-03-30T22:21:24.104Z,100205.00
2023-03-30T22:23:54.569Z,100201.25
2023-03-30T22:26:24.347Z,100200.13
2023-03-30T22:28:52.460Z,100196.34
2023-03-30T22:31:20.510Z,100199.97
2023-03-30T22:33:48.548Z,100201.41
2023-03-30T22:36:19.488Z,100199.47
2023-03-30T22:38:48.299Z,100191.72
2023-03-30T22:41:16.726Z,100184.78
2023-03-30T22:43:46.958Z,100187.19
2023-03-30T22:46:15.089Z,100187.22
2023-03-30T22:48:45.216Z,100188.19
2023-03-30T22:51:15.302Z,100191.19
2023-03-30T22:53:43.396Z,100195.19
2023-03-30T22:56:11.821Z,100190.47
2023-03-30T22:58:39.985Z,100182.63
2023-03-30T23:01:13.600Z,100183.84
2023-03-30T23:03:41.707Z,100185.72
2023-03-30T23:06:09.949Z,100182.63
2023-03-30T23:08:39.309Z,100183.75
2023-03-30T23:11:08.466Z,100183.66
2023-03-30T23:13:38.418Z,100182.47
2023-03-30T23:16:08.438Z,100182.31
2023-03-30T23:18:38.889Z,100188.53
2023-03-30T23:21:08.798Z,100185.91
2023-03-30T23:23:37.851Z,100182.75
2023-03-30T23:26:09.167Z,100192.94
2023-03-30T23:28:39.870Z,100179.59
2023-03-30T23:31:10.024Z,100182.41
2023-03-30T23:33:42.818Z,100168.66
2023-03-30T23:36:13.958Z,100181.09
2023-03-30T23:38:42.697Z,100179.75
2023-03-30T23:41:13.397Z,100180.50
2023-03-30T23:43:41.728Z,100168.94
2023-03-30T23:46:11.104Z,100170.44
2023-03-30T23:48:42.108Z,100168.34
2023-03-30T23:51:10.772Z,100167.50
2023-03-30T23:53:40.440Z,100166.91
2023-03-30T23:56:13.089Z,100166.41
2023-03-30T23:58:41.838Z,100161.69
